EDVE

Braunschweig Wolfsburg Airport

Germany
METAR EDVE 201950Z VRB03KT 9999 FEW035 OVC072 20/16 Q1019
Observed Flight Rules
Aug-20 @ 19:50 UTC (4 hours ago) Visual Flight Rules
Wind Visibility Clouds
Variable at 3 knots 10,000+ meters
  • Few at 3,500' AGL
  • Overcast at 7,200' AGL
Temperatures Readings
Current 20°C / 68°F
Dewpoint 16°C / 61°F
Humidity 78%
Altimeter 30.09" Hg
Pressure 1019 hPa
Elevation 88
METAR EDVE 201950Z VRB03KT 9999 FEW035 OVC072 20/16 Q1019
Observed Flight Rules
Aug-20 @ 19:50 UTC
(4 hours ago)
VFR
Wind Visibility
Variable at 3 knots 10,000+ meters
Clouds
  • Few at 3,500' AGL
  • Overcast at 7,200' AGL
Temperature Dewpoint
20°C / 68°F 16°C / 61°F
Humidity Altimeter Pressure
78% 30.09" Hg 1019 hPa